Time,TemperatureF,DewpointF,PressureIn,WindDirection,WindDirectionDegrees,WindSpeedMPH,WindSpeedGustMPH,Humidity,HourlyPrecipIn,Conditions,Clouds,dailyrainin,SolarRadiationWatts/m^2,SoftwareType,DateUTC
2013-05-09 00:02:00,59.6,57.6,29.97,SE,135,1.0,2.0,93,0.00,,SCT085,0.00,0.00,VWS V14.01,2013-05-09 05:02:00,
2013-05-09 00:07:00,59.6,57.6,29.97,South,179,2.0,4.0,93,0.00,,SCT085,0.00,0.00,VWS V14.01,2013-05-09 05:07:00,
2013-05-09 00:12:00,59.7,57.7,29.97,SSE,166,0.0,2.0,93,0.00,,SCT085,0.00,0.00,VWS V14.01,2013-05-09 05:12:00,
2013-05-09 00:17:00,59.6,57.6,29.97,South,174,0.0,0.0,93,0.00,,SCT085,0.00,0.00,VWS V14.01,2013-05-09 05:17:00,
2013-05-09 00:22:00,59.6,57.6,29.97,SSE,154,2.0,2.0,93,0.00,,SCT085,0.00,0.00,VWS V14.01,2013-05-09 05:22:00,
2013-05-09 00:27:00,59.6,57.6,29.97,SSE,153,2.0,2.0,93,0.00,,SCT085,0.00,0.00,VWS V14.01,2013-05-09 05:27:00,
2013-05-09 00:32:00,59.7,57.7,29.97,SSE,153,0.0,1.0,93,0.00,,SCT085,0.00,0.00,VWS V14.01,2013-05-09 05:32:00,
2013-05-09 00:37:00,59.6,57.6,29.97,SSE,153,0.0,1.0,93,0.00,,SCT085,0.00,0.00,VWS V14.01,2013-05-09 05:37:00,
2013-05-09 00:42:00,59.6,57.6,29.97,SE,136,1.0,4.0,93,0.00,,CLR,0.00,0.00,VWS V14.01,2013-05-09 05:42:00,
2013-05-09 00:47:00,59.6,57.3,29.97,SE,144,0.0,5.0,92,0.00,,CLR,0.00,0.00,VWS V14.01,2013-05-09 05:47:00,
2013-05-09 00:52:00,59.6,57.3,29.97,East,98,3.0,4.0,92,0.00,,CLR,0.00,0.00,VWS V14.01,2013-05-09 05:52:00,
2013-05-09 00:57:00,59.7,57.4,29.97,SE,133,2.0,3.0,92,0.00,,CLR,0.00,0.00,VWS V14.01,2013-05-09 05:57:00,
2013-05-09 01:02:00,59.7,57.4,29.96,ESE,110,2.0,3.0,92,0.00,,CLR,0.00,0.00,VWS V14.01,2013-05-09 06:02:00,
2013-05-09 01:07:00,59.7,57.4,29.97,SSE,166,4.0,4.0,92,0.00,,CLR,0.00,0.00,VWS V14.01,2013-05-09 06:07:00,
2013-05-09 01:12:00,59.8,57.2,29.96,East,99,3.0,4.0,91,0.00,,CLR,0.00,0.00,VWS V14.01,2013-05-09 06:12:00,
2013-05-09 01:17:00,59.8,57.2,29.96,ESE,108,6.0,6.0,91,0.00,,CLR,0.00,0.00,VWS V14.01,2013-05-09 06:17:00,
2013-05-09 01:22:00,59.9,57.0,29.96,ESE,119,5.0,5.0,90,0.00,,CLR,0.00,0.00,VWS V14.01,2013-05-09 06:22:00,
2013-05-09 01:27:00,59.9,57.0,29.96,SE,130,3.0,4.0,90,0.00,,CLR,0.00,0.00,VWS V14.01,2013-05-09 06:27:00,
2013-05-09 01:32:00,60.0,57.1,29.95,ESE,116,2.0,5.0,90,0.00,,CLR,0.00,0.00,VWS V14.01,2013-05-09 06:32:00,
2013-05-09 01:37:00,60.0,56.8,29.95,ESE,104,1.0,4.0,89,0.00,,CLR,0.00,0.00,VWS V14.01,2013-05-09 06:37:00,
2013-05-09 01:42:00,60.0,56.8,29.94,SE,143,0.0,2.0,89,0.00,,CLR,0.00,0.00,VWS V14.01,2013-05-09 06:42:00,
2013-05-09 01:47:00,60.1,56.8,29.94,ESE,112,0.0,4.0,89,0.00,,CLR,0.00,0.00,VWS V14.01,2013-05-09 06:47:00,
2013-05-09 01:52:00,60.0,56.8,29.94,SE,128,1.0,4.0,89,0.00,,BKN080,0.00,0.00,VWS V14.01,2013-05-09 06:52:00,
2013-05-09 01:57:00,59.8,56.6,29.93,SE,128,0.0,2.0,89,0.00,,BKN080,0.00,0.00,VWS V14.01,2013-05-09 06:57:00,
2013-05-09 02:02:00,59.7,56.5,29.94,SSE,155,2.0,4.0,89,0.00,,BKN080,0.00,0.00,VWS V14.01,2013-05-09 07:02:00,
2013-05-09 02:07:00,59.7,56.5,29.93,SSE,154,2.0,4.0,89,0.00,,BKN080,0.00,0.00,VWS V14.01,2013-05-09 07:07:00,
2013-05-09 02:12:00,59.7,56.5,29.93,SSE,154,1.0,2.0,89,0.00,,BKN080,0.00,0.00,VWS V14.01,2013-05-09 07:12:00,
2013-05-09 02:18:00,59.8,56.6,29.93,SE,133,2.0,2.0,89,0.00,,BKN080,0.00,0.00,VWS V14.01,2013-05-09 07:18:00,
2013-05-09 02:23:00,59.8,56.6,29.93,SE,133,0.0,1.0,89,0.00,,BKN080,0.00,0.00,VWS V14.01,2013-05-09 07:23:00,
2013-05-09 02:28:00,59.8,56.6,29.94,SE,133,0.0,0.0,89,0.00,,BKN080,0.00,0.00,VWS V14.01,2013-05-09 07:28:00,
2013-05-09 02:33:00,59.7,56.5,29.94,SE,136,0.0,1.0,89,0.00,,BKN080,0.00,0.00,VWS V14.01,2013-05-09 07:33:00,
2013-05-09 02:38:00,59.6,56.7,29.94,SE,136,0.0,0.0,90,0.00,,BKN080,0.00,0.00,VWS V14.01,2013-05-09 07:38:00,
2013-05-09 02:43:00,59.5,56.3,29.93,SE,136,0.0,1.0,89,0.00,,BKN080,0.00,0.00,VWS V14.01,2013-05-09 07:43:00,
2013-05-09 02:48:00,59.2,56.3,29.93,NNE,31,1.0,3.0,90,0.00,,BKN080,0.00,0.00,VWS V14.01,2013-05-09 07:48:00,
2013-05-09 02:53:00,59.1,56.2,29.93,NNE,31,0.0,2.0,90,0.00,,SCT085,0.00,0.00,VWS V14.01,2013-05-09 07:53:00,
2013-05-09 02:58:00,59.0,56.1,29.93,NNE,32,2.0,2.0,90,0.00,,SCT085,0.00,0.00,VWS V14.01,2013-05-09 07:58:00,
2013-05-09 03:03:00,59.1,56.2,29.93,NNE,32,0.0,1.0,90,0.00,,SCT085,0.00,0.00,VWS V14.01,2013-05-09 08:03:00,
2013-05-09 03:08:00,59.1,56.5,29.93,NNE,32,1.0,2.0,91,0.00,,SCT085,0.00,0.00,VWS V14.01,2013-05-09 08:08:00,
2013-05-09 03:13:00,59.0,56.1,29.93,NNE,32,1.0,3.0,90,0.00,,SCT085,0.00,0.00,VWS V14.01,2013-05-09 08:13:00,
2013-05-09 03:18:00,59.0,56.4,29.93,NE,55,3.0,3.0,91,0.00,,SCT085,0.00,0.00,VWS V14.01,2013-05-09 08:18:00,
2013-05-09 03:23:00,59.0,56.4,29.93,ENE,68,1.0,2.0,91,0.00,,SCT085,0.00,0.00,VWS V14.01,2013-05-09 08:23:00,
2013-05-09 03:28:00,59.0,56.4,29.93,ENE,68,2.0,3.0,91,0.01,,SCT085,0.01,0.00,VWS V14.01,2013-05-09 08:28:00,
2013-05-09 03:33:00,59.0,56.4,29.92,East,85,2.0,3.0,91,0.02,,SCT085,0.02,0.00,VWS V14.01,2013-05-09 08:33:00,
2013-05-09 03:38:00,59.0,56.4,29.92,East,83,3.0,3.0,91,0.02,,SCT085,0.02,0.00,VWS V14.01,2013-05-09 08:38:00,
2013-05-09 03:43:00,59.0,56.7,29.92,East,97,3.0,4.0,92,0.02,,SCT085,0.02,0.00,VWS V14.01,2013-05-09 08:43:00,
2013-05-09 03:48:00,59.0,56.7,29.92,ESE,112,2.0,4.0,92,0.02,,SCT085,0.02,0.00,VWS V14.01,2013-05-09 08:48:00,
2013-05-09 03:53:00,59.0,56.7,29.92,SE,144,1.0,3.0,92,0.02,,,0.02,0.00,VWS V14.01,2013-05-09 08:53:00,
2013-05-09 03:58:00,59.0,56.7,29.92,ESE,110,3.0,5.0,92,0.02,,,0.02,0.00,VWS V14.01,2013-05-09 08:58:00,
2013-05-09 04:03:00,59.1,56.5,29.92,SE,146,1.0,3.0,91,0.02,,,0.02,0.00,VWS V14.01,2013-05-09 09:03:00,
2013-05-09 04:08:00,59.2,56.6,29.92,SSE,155,2.0,5.0,91,0.02,,,0.02,0.00,VWS V14.01,2013-05-09 09:08:00,
2013-05-09 04:13:00,59.4,56.8,29.92,SE,143,0.0,2.0,91,0.02,,,0.02,0.00,VWS V14.01,2013-05-09 09:13:00,
2013-05-09 04:18:00,59.5,56.9,29.92,SSE,168,0.0,2.0,91,0.02,,,0.02,0.00,VWS V14.01,2013-05-09 09:18:00,
2013-05-09 04:23:00,59.6,56.7,29.92,SSE,150,5.0,5.0,90,0.02,,,0.02,0.00,VWS V14.01,2013-05-09 09:23:00,
2013-05-09 04:28:00,59.7,56.8,29.92,SSE,162,3.0,6.0,90,0.01,,,0.02,0.00,VWS V14.01,2013-05-09 09:28:00,
2013-05-09 04:33:00,59.8,56.6,29.92,South,174,0.0,4.0,89,0.00,,,0.02,0.00,VWS V14.01,2013-05-09 09:33:00,
2013-05-09 04:38:00,59.9,56.7,29.92,SSE,154,2.0,4.0,89,0.00,,,0.02,0.00,VWS V14.01,2013-05-09 09:38:00,
2013-05-09 04:43:00,59.9,56.7,29.92,SSE,161,2.0,3.0,89,0.00,,,0.02,0.00,VWS V14.01,2013-05-09 09:43:00,
2013-05-09 04:48:00,59.8,56.6,29.92,SSE,154,4.0,5.0,89,0.00,,,0.02,0.00,VWS V14.01,2013-05-09 09:48:00,
2013-05-09 04:53:00,59.7,56.5,29.92,SSE,152,4.0,5.0,89,0.00,,OVC050,0.02,0.00,VWS V14.01,2013-05-09 09:53:00,
2013-05-09 04:58:00,59.6,56.4,29.92,South,183,2.0,4.0,89,0.00,,OVC050,0.02,0.00,VWS V14.01,2013-05-09 09:58:00,
2013-05-09 05:03:00,59.5,56.3,29.92,South,181,7.0,7.0,89,0.00,,OVC050,0.02,0.00,VWS V14.01,2013-05-09 10:03:00,
2013-05-09 05:08:00,59.4,56.2,29.92,South,186,3.0,6.0,89,0.02,,OVC050,0.04,0.00,VWS V14.01,2013-05-09 10:08:00,
2013-05-09 05:13:00,59.1,56.2,29.92,South,191,4.0,7.0,90,0.06,,OVC050,0.08,0.00,VWS V14.01,2013-05-09 10:13:00,
2013-05-09 05:18:00,59.0,56.4,29.92,SSW,199,6.0,7.0,91,0.08,,OVC050,0.10,0.00,VWS V14.01,2013-05-09 10:18:00,
2013-05-09 05:23:00,59.0,56.4,29.92,SSW,199,1.0,5.0,91,0.09,,OVC050,0.11,0.00,VWS V14.01,2013-05-09 10:23:00,
2013-05-09 05:29:00,59.0,56.7,29.92,SSW,203,2.0,3.0,92,0.10,,OVC050,0.12,0.00,VWS V14.01,2013-05-09 10:29:00,
2013-05-09 05:34:00,59.0,56.7,29.92,SSW,203,1.0,2.0,92,0.10,,OVC050,0.12,0.00,VWS V14.01,2013-05-09 10:34:00,
2013-05-09 05:39:00,58.9,56.6,29.92,West,259,3.0,3.0,92,0.10,,OVC050,0.12,0.00,VWS V14.01,2013-05-09 10:39:00,
2013-05-09 05:44:00,58.8,56.5,29.92,West,276,2.0,3.0,92,0.10,,OVC050,0.12,0.00,VWS V14.01,2013-05-09 10:44:00,
2013-05-09 05:49:00,58.7,56.4,29.92,WNW,285,2.0,3.0,92,0.10,,OVC050,0.12,0.00,VWS V14.01,2013-05-09 10:49:00,
2013-05-09 05:54:00,58.7,56.7,29.92,West,268,1.0,2.0,93,0.10,,-RA,0.12,0.00,VWS V14.01,2013-05-09 10:54:00,
2013-05-09 05:59:00,58.6,56.6,29.92,WSW,252,1.0,3.0,93,0.10,,-RA,0.12,0.00,VWS V14.01,2013-05-09 10:59:00,
2013-05-09 06:04:00,58.6,56.6,29.91,WSW,246,0.0,1.0,93,0.10,,-RA,0.12,0.00,VWS V14.01,2013-05-09 11:04:00,
2013-05-09 06:09:00,58.6,56.6,29.91,WSW,246,0.0,0.0,93,0.10,,-RA,0.12,0.00,VWS V14.01,2013-05-09 11:09:00,
2013-05-09 06:14:00,58.5,56.5,29.91,WSW,246,0.0,1.0,93,0.06,,-RA,0.12,0.00,VWS V14.01,2013-05-09 11:14:00,
2013-05-09 06:19:00,58.4,56.4,29.91,WSW,246,0.0,0.0,93,0.03,,-RA,0.12,0.00,VWS V14.01,2013-05-09 11:19:00,
2013-05-09 06:24:00,58.4,56.4,29.91,WSW,246,0.0,0.0,93,0.02,,-RA,0.12,0.00,VWS V14.01,2013-05-09 11:24:00,
2013-05-09 06:29:00,58.3,56.6,29.91,WSW,246,0.0,0.0,94,0.00,,-RA,0.12,0.00,VWS V14.01,2013-05-09 11:29:00,
2013-05-09 06:34:00,58.1,56.4,29.91,WSW,246,0.0,1.0,94,0.00,,-RA,0.12,0.00,VWS V14.01,2013-05-09 11:34:00,
2013-05-09 06:39:00,57.9,56.2,29.91,SW,222,2.0,3.0,94,0.00,,-RA,0.12,0.00,VWS V14.01,2013-05-09 11:39:00,
2013-05-09 06:44:00,57.8,56.1,29.92,SW,214,2.0,3.0,94,0.00,,-RA,0.12,5.00,VWS V14.01,2013-05-09 11:44:00,
2013-05-09 06:49:00,57.9,56.2,29.91,SE,146,1.0,2.0,94,0.00,,-RA,0.12,5.00,VWS V14.01,2013-05-09 11:49:00,
2013-05-09 06:54:00,58.0,56.3,29.91,ESE,121,0.0,0.0,94,0.00,,,0.12,7.00,VWS V14.01,2013-05-09 11:54:00,
2013-05-09 06:59:00,57.8,56.1,29.92,ESE,121,2.0,3.0,94,0.00,,,0.12,9.00,VWS V14.01,2013-05-09 11:59:00,
2013-05-09 07:04:00,57.7,56.0,29.92,South,174,1.0,4.0,94,0.00,,,0.12,12.00,VWS V14.01,2013-05-09 12:04:00,
2013-05-09 07:09:00,57.8,56.1,29.92,South,174,2.0,3.0,94,0.01,,,0.13,21.00,VWS V14.01,2013-05-09 12:09:00,
2013-05-09 07:14:00,58.1,56.4,29.92,South,175,2.0,3.0,94,0.01,,,0.13,33.00,VWS V14.01,2013-05-09 12:14:00,
2013-05-09 07:19:00,58.3,56.9,29.91,South,175,0.0,0.0,95,0.01,,,0.13,28.00,VWS V14.01,2013-05-09 12:19:00,
2013-05-09 07:24:00,58.3,56.9,29.92,South,175,0.0,1.0,95,0.01,,,0.13,25.00,VWS V14.01,2013-05-09 12:24:00,
2013-05-09 07:29:00,58.3,56.9,29.92,South,175,2.0,2.0,95,0.01,,,0.13,21.00,VWS V14.01,2013-05-09 12:29:00,
2013-05-09 07:34:00,58.3,56.9,29.92,South,175,0.0,1.0,95,0.01,,,0.13,16.00,VWS V14.01,2013-05-09 12:34:00,
2013-05-09 07:39:00,58.2,56.8,29.92,South,175,1.0,1.0,95,0.01,,,0.13,16.00,VWS V14.01,2013-05-09 12:39:00,
2013-05-09 07:44:00,58.2,56.8,29.92,South,175,0.0,1.0,95,0.01,,,0.13,19.00,VWS V14.01,2013-05-09 12:44:00,
2013-05-09 07:49:00,58.3,56.9,29.92,South,175,0.0,1.0,95,0.01,,,0.13,23.00,VWS V14.01,2013-05-09 12:49:00,
2013-05-09 07:54:00,58.3,56.9,29.92,South,175,0.0,0.0,95,0.01,,,0.13,33.00,VWS V14.01,2013-05-09 12:54:00,
2013-05-09 07:59:00,58.4,57.0,29.91,South,175,0.0,1.0,95,0.02,,,0.14,39.00,VWS V14.01,2013-05-09 12:59:00,
2013-05-09 08:05:00,58.5,57.1,29.91,South,175,0.0,0.0,95,0.02,,,0.14,42.00,VWS V14.01,2013-05-09 13:05:00,
2013-05-09 08:10:00,58.5,57.1,29.91,South,175,0.0,1.0,95,0.02,,,0.14,35.00,VWS V14.01,2013-05-09 13:10:00,
2013-05-09 08:15:00,58.6,57.2,29.91,South,175,0.0,1.0,95,0.01,,,0.14,35.00,VWS V14.01,2013-05-09 13:15:00,
2013-05-09 08:20:00,58.6,57.2,29.91,South,175,0.0,1.0,95,0.01,,,0.14,26.00,VWS V14.01,2013-05-09 13:20:00,
2013-05-09 08:25:00,58.7,57.3,29.91,South,175,1.0,1.0,95,0.01,,,0.14,28.00,VWS V14.01,2013-05-09 13:25:00,
2013-05-09 08:30:00,58.6,57.2,29.91,South,175,0.0,1.0,95,0.01,,,0.14,32.00,VWS V14.01,2013-05-09 13:30:00,
2013-05-09 08:35:00,58.6,57.2,29.92,South,175,0.0,1.0,95,0.01,,,0.14,37.00,VWS V14.01,2013-05-09 13:35:00,
2013-05-09 08:40:00,58.7,57.3,29.92,South,175,0.0,1.0,95,0.01,,,0.14,47.00,VWS V14.01,2013-05-09 13:40:00,
2013-05-09 08:45:00,58.8,57.4,29.92,South,175,0.0,1.0,95,0.01,,,0.14,83.00,VWS V14.01,2013-05-09 13:45:00,
2013-05-09 08:50:00,59.0,57.6,29.92,South,175,1.0,3.0,95,0.01,,BKN090,0.14,46.00,VWS V14.01,2013-05-09 13:50:00,
2013-05-09 08:55:00,59.0,57.6,29.92,South,175,1.0,2.0,95,0.01,,BKN090,0.14,67.00,VWS V14.01,2013-05-09 13:55:00,
2013-05-09 09:00:00,59.0,57.6,29.92,South,175,0.0,2.0,95,0.01,,BKN090,0.14,51.00,VWS V14.01,2013-05-09 14:00:00,
2013-05-09 09:05:00,59.0,57.6,29.92,South,175,2.0,2.0,95,0.00,,BKN090,0.14,44.00,VWS V14.01,2013-05-09 14:05:00,
2013-05-09 09:10:00,59.0,57.6,29.92,South,175,0.0,0.0,95,0.00,,BKN090,0.14,39.00,VWS V14.01,2013-05-09 14:10:00,
2013-05-09 09:15:00,59.0,57.6,29.92,South,175,0.0,1.0,95,0.00,,BKN090,0.14,39.00,VWS V14.01,2013-05-09 14:15:00,
2013-05-09 09:20:00,59.0,57.6,29.92,South,175,0.0,1.0,95,0.00,,BKN090,0.14,40.00,VWS V14.01,2013-05-09 14:20:00,
2013-05-09 09:25:00,59.0,57.6,29.92,South,175,0.0,1.0,95,0.00,,BKN090,0.14,39.00,VWS V14.01,2013-05-09 14:25:00,
2013-05-09 09:30:00,59.0,57.6,29.92,South,175,0.0,0.0,95,0.00,,BKN090,0.14,40.00,VWS V14.01,2013-05-09 14:30:00,
2013-05-09 09:35:00,59.0,57.6,29.92,South,175,0.0,1.0,95,0.00,,BKN090,0.14,60.00,VWS V14.01,2013-05-09 14:35:00,
2013-05-09 09:40:00,59.0,57.6,29.92,South,175,0.0,1.0,95,0.00,,BKN090,0.14,83.00,VWS V14.01,2013-05-09 14:40:00,
2013-05-09 09:45:00,59.2,57.8,29.92,South,174,0.0,1.0,95,0.00,,BKN090,0.14,95.00,VWS V14.01,2013-05-09 14:45:00,
2013-05-09 09:50:00,59.5,58.1,29.92,South,174,0.0,1.0,95,0.00,,BKN065,0.14,156.00,VWS V14.01,2013-05-09 14:50:00,
2013-05-09 09:55:00,59.6,58.2,29.92,South,174,0.0,0.0,95,0.00,,BKN065,0.14,264.00,VWS V14.01,2013-05-09 14:55:00,
2013-05-09 10:00:00,59.9,58.5,29.92,South,174,1.0,2.0,95,0.00,,BKN065,0.14,301.00,VWS V14.01,2013-05-09 15:00:00,
2013-05-09 10:05:00,60.9,59.5,29.92,South,176,1.0,3.0,95,0.00,,BKN065,0.14,341.00,VWS V14.01,2013-05-09 15:05:00,
2013-05-09 10:10:00,61.1,59.7,29.92,South,187,1.0,5.0,95,0.00,,BKN065,0.14,304.00,VWS V14.01,2013-05-09 15:10:00,
2013-05-09 10:15:00,61.2,59.8,29.92,South,187,3.0,3.0,95,0.00,,BKN065,0.14,309.00,VWS V14.01,2013-05-09 15:15:00,
2013-05-09 10:20:00,61.3,59.6,29.92,South,185,4.0,4.0,94,0.00,,BKN065,0.14,309.00,VWS V14.01,2013-05-09 15:20:00,
2013-05-09 10:25:00,61.8,60.1,29.92,South,185,0.0,4.0,94,0.00,,BKN065,0.14,274.00,VWS V14.01,2013-05-09 15:25:00,
2013-05-09 10:30:00,61.8,60.1,29.92,SSW,196,3.0,4.0,94,0.00,,-RA,0.14,313.00,VWS V14.01,2013-05-09 15:30:00,
2013-05-09 10:35:00,62.1,60.1,29.92,SW,224,1.0,3.0,93,0.00,,-RA,0.14,316.00,VWS V14.01,2013-05-09 15:35:00,
2013-05-09 10:40:00,62.5,60.5,29.92,South,171,3.0,5.0,93,0.00,,-RA,0.14,267.00,VWS V14.01,2013-05-09 15:40:00,
2013-05-09 10:45:00,62.5,60.2,29.92,South,172,3.0,3.0,92,0.00,,-RA,0.14,209.00,VWS V14.01,2013-05-09 15:45:00,
2013-05-09 10:50:00,62.5,60.2,29.92,SE,144,4.0,6.0,92,0.00,,SCT009,0.14,202.00,VWS V14.01,2013-05-09 15:50:00,
2013-05-09 10:55:00,62.6,60.2,29.92,South,175,3.0,4.0,92,0.00,,SCT009,0.14,221.00,VWS V14.01,2013-05-09 15:55:00,
2013-05-09 11:00:00,62.6,60.2,29.91,South,178,3.0,6.0,92,0.00,,SCT009,0.14,258.00,VWS V14.01,2013-05-09 16:00:00,
2013-05-09 11:05:00,62.9,60.5,29.91,South,181,3.0,4.0,92,0.00,,SCT009,0.14,285.00,VWS V14.01,2013-05-09 16:05:00,
2013-05-09 11:10:00,63.2,60.5,29.91,SSE,160,2.0,4.0,91,0.00,,SCT009,0.14,309.00,VWS V14.01,2013-05-09 16:10:00,
2013-05-09 11:15:00,63.8,61.1,29.91,SSE,158,2.0,4.0,91,0.00,,SCT009,0.14,341.00,VWS V14.01,2013-05-09 16:15:00,
2013-05-09 11:20:00,64.2,61.5,29.92,SE,144,3.0,6.0,91,0.00,,SCT009,0.14,295.00,VWS V14.01,2013-05-09 16:20:00,
2013-05-09 11:25:00,63.9,60.6,29.92,SSW,198,7.0,7.0,89,0.00,,SCT009,0.14,251.00,VWS V14.01,2013-05-09 16:25:00,
2013-05-09 11:30:00,63.8,60.5,29.92,SSE,167,4.0,5.0,89,0.00,,SCT009,0.14,243.00,VWS V14.01,2013-05-09 16:30:00,
2013-05-09 11:35:00,63.8,60.5,29.92,South,187,5.0,7.0,89,0.00,,SCT009,0.14,279.00,VWS V14.01,2013-05-09 16:35:00,
2013-05-09 11:40:00,63.9,60.9,29.92,SSW,202,5.0,6.0,90,0.00,,BKN011,0.14,251.00,VWS V14.01,2013-05-09 16:40:00,
2013-05-09 11:45:00,63.7,60.7,29.92,SW,219,4.0,5.0,90,0.00,,BKN011,0.14,227.00,VWS V14.01,2013-05-09 16:45:00,
2013-05-09 11:50:00,63.5,60.5,29.92,SW,218,2.0,3.0,90,0.00,,BKN011,0.14,220.00,VWS V14.01,2013-05-09 16:50:00,
2013-05-09 11:55:00,63.7,61.0,29.92,SSW,205,2.0,3.0,91,0.00,,BKN011,0.14,237.00,VWS V14.01,2013-05-09 16:55:00,
2013-05-09 12:00:00,63.8,60.8,29.92,WSW,247,4.0,4.0,90,0.00,,BKN011,0.14,232.00,VWS V14.01,2013-05-09 17:00:00,
2013-05-09 12:06:00,63.7,60.4,29.92,WSW,251,2.0,6.0,89,0.00,,SCT011,0.14,216.00,VWS V14.01,2013-05-09 17:06:00,
2013-05-09 12:11:00,63.9,60.9,29.92,SW,232,4.0,5.0,90,0.00,,SCT011,0.14,241.00,VWS V14.01,2013-05-09 17:11:00,
2013-05-09 12:16:00,64.0,60.7,29.92,WSW,248,3.0,5.0,89,0.00,,SCT011,0.14,258.00,VWS V14.01,2013-05-09 17:16:00,
2013-05-09 12:21:00,64.1,60.8,29.92,WSW,237,3.0,3.0,89,0.00,,SCT011,0.14,288.00,VWS V14.01,2013-05-09 17:21:00,
2013-05-09 12:26:00,64.3,61.0,29.92,SW,232,2.0,5.0,89,0.00,,SCT011,0.14,352.00,VWS V14.01,2013-05-09 17:26:00,
2013-05-09 12:31:00,64.5,61.2,29.92,WSW,240,4.0,5.0,89,0.00,,SCT011,0.14,343.00,VWS V14.01,2013-05-09 17:31:00,
2013-05-09 12:36:00,64.6,61.0,29.91,SSW,212,5.0,5.0,88,0.00,,SCT011,0.14,390.00,VWS V14.01,2013-05-09 17:36:00,
2013-05-09 12:41:00,64.9,61.3,29.91,SW,232,2.0,5.0,88,0.00,,SCT011,0.14,250.00,VWS V14.01,2013-05-09 17:41:00,
2013-05-09 12:46:00,64.8,60.8,29.91,SW,234,4.0,5.0,87,0.00,,SCT011,0.14,113.00,VWS V14.01,2013-05-09 17:46:00,
2013-05-09 12:51:00,64.4,60.5,29.91,WSW,247,5.0,6.0,87,0.00,,-RA,0.14,125.00,VWS V14.01,2013-05-09 17:51:00,
2013-05-09 12:56:00,64.1,60.2,29.91,WSW,257,5.0,6.0,87,0.00,,-RA,0.14,146.00,VWS V14.01,2013-05-09 17:56:00,
2013-05-09 13:01:00,64.0,60.4,29.91,West,275,3.0,7.0,88,0.00,,-RA,0.14,151.00,VWS V14.01,2013-05-09 18:01:00,
2013-05-09 13:06:00,64.0,60.7,29.91,WNW,290,3.0,5.0,89,0.00,,-RA,0.14,172.00,VWS V14.01,2013-05-09 18:06:00,
2013-05-09 13:11:00,63.6,60.6,29.91,WNW,296,5.0,7.0,90,0.00,,-RA,0.14,123.00,VWS V14.01,2013-05-09 18:11:00,
2013-05-09 13:16:00,63.0,60.0,29.92,NW,305,3.0,7.0,90,0.00,,-RA,0.14,100.00,VWS V14.01,2013-05-09 18:16:00,
2013-05-09 13:21:00,62.6,59.9,29.91,WNW,300,2.0,5.0,91,0.00,,-RA,0.14,190.00,VWS V14.01,2013-05-09 18:21:00,
2013-05-09 13:26:00,62.5,59.5,29.91,West,274,6.0,10.0,90,0.00,,-RA,0.14,188.00,VWS V14.01,2013-05-09 18:26:00,
2013-05-09 13:31:00,62.3,59.6,29.91,West,265,1.0,6.0,91,0.00,,-RA,0.14,162.00,VWS V14.01,2013-05-09 18:31:00,
2013-05-09 13:36:00,62.3,59.6,29.92,WNW,298,5.0,6.0,91,0.00,,-RA,0.14,142.00,VWS V14.01,2013-05-09 18:36:00,
2013-05-09 13:41:00,62.2,59.5,29.91,West,278,5.0,8.0,91,0.00,,-RA,0.14,167.00,VWS V14.01,2013-05-09 18:41:00,
2013-05-09 13:46:00,62.3,59.6,29.91,WNW,284,2.0,5.0,91,0.00,,-RA,0.14,199.00,VWS V14.01,2013-05-09 18:46:00,
2013-05-09 13:51:00,62.4,59.7,29.91,NW,317,2.0,5.0,91,0.00,,BKN031,0.14,183.00,VWS V14.01,2013-05-09 18:51:00,
2013-05-09 13:56:00,62.4,59.7,29.91,NW,318,2.0,6.0,91,0.00,,BKN031,0.14,127.00,VWS V14.01,2013-05-09 18:56:00,
2013-05-09 14:01:00,62.2,59.5,29.91,NNW,330,2.0,6.0,91,0.00,,BKN031,0.14,91.00,VWS V14.01,2013-05-09 19:01:00,
2013-05-09 14:06:00,61.9,59.2,29.91,NW,308,1.0,5.0,91,0.00,,BKN031,0.14,232.00,VWS V14.01,2013-05-09 19:06:00,
2013-05-09 14:11:00,62.2,59.8,29.91,NW,315,0.0,4.0,92,0.00,,BKN031,0.14,360.00,VWS V14.01,2013-05-09 19:11:00,
2013-05-09 14:16:00,62.5,60.2,29.90,WNW,291,2.0,6.0,92,0.00,,BKN031,0.14,399.00,VWS V14.01,2013-05-09 19:16:00,
2013-05-09 14:21:00,63.6,61.5,29.90,NNW,327,5.0,6.0,93,0.00,,BKN031,0.14,408.00,VWS V14.01,2013-05-09 19:21:00,
2013-05-09 14:26:00,63.4,60.4,29.90,NNW,347,4.0,10.0,90,0.00,,BKN031,0.14,422.00,VWS V14.01,2013-05-09 19:26:00,
2013-05-09 14:31:00,63.7,61.0,29.90,North,355,0.0,5.0,91,0.00,,BKN031,0.14,478.00,VWS V14.01,2013-05-09 19:31:00,
2013-05-09 14:36:00,64.4,61.7,29.90,NNW,330,5.0,7.0,91,0.00,,BKN031,0.14,439.00,VWS V14.01,2013-05-09 19:36:00,
2013-05-09 14:41:00,64.5,61.2,29.90,NW,313,2.0,6.0,89,0.00,,-RA,0.14,424.00,VWS V14.01,2013-05-09 19:41:00,
2013-05-09 14:47:00,64.8,61.2,29.89,NNW,332,3.0,6.0,88,0.00,,-RA,0.14,478.00,VWS V14.01,2013-05-09 19:47:00,
2013-05-09 14:52:00,65.1,60.8,29.89,NW,320,5.0,6.0,86,0.00,,-RA,0.14,522.00,VWS V14.01,2013-05-09 19:52:00,
2013-05-09 14:57:00,65.5,60.9,29.89,WNW,286,6.0,7.0,85,0.00,,-RA,0.14,621.00,VWS V14.01,2013-05-09 19:57:00,
2013-05-09 15:02:00,65.9,61.3,29.89,West,263,5.0,6.0,85,0.00,,BKN020,0.14,691.00,VWS V14.01,2013-05-09 20:02:00,
2013-05-09 15:07:00,66.5,61.5,29.89,NNW,330,5.0,5.0,84,0.00,,BKN020,0.14,1027.00,VWS V14.01,2013-05-09 20:07:00,
2013-05-09 15:12:00,66.6,61.3,29.89,NW,323,6.0,10.0,83,0.00,,BKN020,0.14,536.00,VWS V14.01,2013-05-09 20:12:00,
2013-05-09 15:17:00,66.7,61.4,29.88,NNW,345,3.0,7.0,83,0.00,,BKN020,0.14,1053.00,VWS V14.01,2013-05-09 20:17:00,
2013-05-09 15:22:00,67.3,61.6,29.88,WNW,289,2.0,5.0,82,0.00,,BKN020,0.14,905.00,VWS V14.01,2013-05-09 20:22:00,
2013-05-09 15:27:00,67.7,61.0,29.88,WNW,303,4.0,6.0,79,0.00,,BKN020,0.14,870.00,VWS V14.01,2013-05-09 20:27:00,
2013-05-09 15:32:00,67.8,61.4,29.88,NW,311,3.0,6.0,80,0.00,,BKN020,0.14,717.00,VWS V14.01,2013-05-09 20:32:00,
2013-05-09 15:37:00,67.7,62.0,29.88,NNE,15,2.0,6.0,82,0.00,,BKN020,0.14,914.00,VWS V14.01,2013-05-09 20:37:00,
2013-05-09 15:42:00,68.1,61.7,29.88,WNW,288,3.0,8.0,80,0.00,,BKN034,0.14,446.00,VWS V14.01,2013-05-09 20:42:00,
2013-05-09 15:47:00,67.5,60.8,29.88,WNW,293,2.0,6.0,79,0.00,,BKN034,0.14,378.00,VWS V14.01,2013-05-09 20:47:00,
2013-05-09 15:52:00,67.5,61.5,29.88,WNW,295,2.0,7.0,81,0.00,,BKN034,0.14,415.00,VWS V14.01,2013-05-09 20:52:00,
2013-05-09 15:57:00,67.4,61.0,29.88,WNW,293,4.0,5.0,80,0.00,,BKN034,0.14,285.00,VWS V14.01,2013-05-09 20:57:00,
2013-05-09 16:02:00,67.3,60.9,29.88,NW,326,2.0,5.0,80,0.00,,SCT033,0.14,346.00,VWS V14.01,2013-05-09 21:02:00,
2013-05-09 16:07:00,67.3,60.9,29.87,North,355,3.0,5.0,80,0.00,,SCT033,0.14,373.00,VWS V14.01,2013-05-09 21:07:00,
2013-05-09 16:12:00,67.8,62.1,29.87,WNW,293,3.0,5.0,82,0.00,,SCT033,0.14,378.00,VWS V14.01,2013-05-09 21:12:00,
2013-05-09 16:17:00,67.8,60.3,29.87,NW,323,6.0,6.0,77,0.00,,SCT033,0.14,397.00,VWS V14.01,2013-05-09 21:17:00,
2013-05-09 16:22:00,68.0,60.2,29.87,NNW,327,3.0,6.0,76,0.00,,SCT033,0.14,499.00,VWS V14.01,2013-05-09 21:22:00,
2013-05-09 16:27:00,68.2,61.1,29.86,WNW,286,3.0,6.0,78,0.00,,SCT033,0.14,292.00,VWS V14.01,2013-05-09 21:27:00,
2013-05-09 16:32:00,67.9,60.1,29.86,NNW,331,10.0,10.0,76,0.00,,SCT033,0.14,330.00,VWS V14.01,2013-05-09 21:32:00,
2013-05-09 16:37:00,68.1,60.6,29.86,West,269,3.0,8.0,77,0.00,,SCT033,0.14,322.00,VWS V14.01,2013-05-09 21:37:00,
2013-05-09 16:42:00,68.1,59.5,29.86,NW,311,5.0,9.0,74,0.00,,SCT033,0.14,287.00,VWS V14.01,2013-05-09 21:42:00,
2013-05-09 16:47:00,68.1,59.9,29.86,West,270,2.0,10.0,75,0.00,,SCT033,0.14,276.00,VWS V14.01,2013-05-09 21:47:00,
2013-05-09 16:52:00,67.9,60.1,29.86,NW,326,3.0,9.0,76,0.00,,SCT080,0.14,283.00,VWS V14.01,2013-05-09 21:52:00,
2013-05-09 16:57:00,68.0,59.8,29.86,WNW,303,1.0,9.0,75,0.00,,SCT080,0.14,390.00,VWS V14.01,2013-05-09 21:57:00,
2013-05-09 17:02:00,68.0,59.8,29.86,WNW,295,2.0,6.0,75,0.00,,SCT080,0.14,348.00,VWS V14.01,2013-05-09 22:02:00,
2013-05-09 17:07:00,68.8,60.6,29.86,WNW,293,3.0,8.0,75,0.00,,SCT080,0.14,729.00,VWS V14.01,2013-05-09 22:07:00,
2013-05-09 17:12:00,69.8,61.9,29.86,NW,312,4.0,6.0,76,0.00,,SCT080,0.14,668.00,VWS V14.01,2013-05-09 22:12:00,
2013-05-09 17:17:00,69.9,60.1,29.86,NNW,328,2.0,7.0,71,0.00,,SCT080,0.14,601.00,VWS V14.01,2013-05-09 22:17:00,
2013-05-09 17:22:00,70.4,60.6,29.86,NW,319,5.0,9.0,71,0.00,,SCT080,0.14,404.00,VWS V14.01,2013-05-09 22:22:00,
2013-05-09 17:27:00,69.3,58.7,29.86,NW,324,6.0,6.0,69,0.00,,SCT080,0.14,380.00,VWS V14.01,2013-05-09 22:27:00,
2013-05-09 17:32:00,68.6,58.4,29.86,NW,324,0.0,8.0,70,0.00,,SCT080,0.14,179.00,VWS V14.01,2013-05-09 22:32:00,
2013-05-09 17:37:00,68.3,59.7,29.86,NW,304,4.0,6.0,74,0.00,,SCT080,0.14,162.00,VWS V14.01,2013-05-09 22:37:00,
2013-05-09 17:42:00,68.1,59.1,29.86,West,271,9.0,11.0,73,0.00,,SCT044,0.14,142.00,VWS V14.01,2013-05-09 22:42:00,
2013-05-09 17:47:00,67.9,59.3,29.86,NW,317,2.0,5.0,74,0.00,,SCT044,0.14,134.00,VWS V14.01,2013-05-09 22:47:00,
2013-05-09 17:52:00,67.7,59.1,29.86,WNW,283,5.0,5.0,74,0.00,,SCT044,0.14,141.00,VWS V14.01,2013-05-09 22:52:00,
2013-05-09 17:57:00,67.7,59.5,29.86,West,272,2.0,5.0,75,0.00,,SCT044,0.14,218.00,VWS V14.01,2013-05-09 22:57:00,
2013-05-09 18:02:00,68.1,59.9,29.86,West,270,2.0,6.0,75,0.00,,CLR,0.14,318.00,VWS V14.01,2013-05-09 23:02:00,
2013-05-09 18:07:00,68.7,60.5,29.86,WSW,251,5.0,5.0,75,0.00,,CLR,0.14,239.00,VWS V14.01,2013-05-09 23:07:00,
2013-05-09 18:12:00,68.2,59.6,29.85,WNW,284,4.0,9.0,74,0.00,,CLR,0.14,125.00,VWS V14.01,2013-05-09 23:12:00,
2013-05-09 18:17:00,67.5,59.3,29.85,WSW,258,4.0,8.0,75,0.00,,CLR,0.14,58.00,VWS V14.01,2013-05-09 23:17:00,
2013-05-09 18:22:00,67.0,59.2,29.86,WNW,290,2.0,7.0,76,0.00,,CLR,0.14,23.00,VWS V14.01,2013-05-09 23:22:00,
2013-05-09 18:28:00,66.6,59.5,29.86,WNW,303,14.0,14.0,78,0.00,,CLR,0.14,7.00,VWS V14.01,2013-05-09 23:28:00,
2013-05-09 18:33:00,65.4,58.7,29.86,NW,324,7.0,15.0,79,0.01,,CLR,0.15,16.00,VWS V14.01,2013-05-09 23:33:00,
2013-05-09 18:38:00,64.2,58.9,29.87,NNW,329,5.0,9.0,83,0.02,,CLR,0.16,30.00,VWS V14.01,2013-05-09 23:38:00,
2013-05-09 18:43:00,63.3,59.0,29.87,North,355,2.0,7.0,86,0.03,,CLR,0.17,33.00,VWS V14.01,2013-05-09 23:43:00,
2013-05-09 18:48:00,63.0,59.4,29.87,North,10,2.0,2.0,88,0.03,,CLR,0.17,30.00,VWS V14.01,2013-05-09 23:48:00,
2013-05-09 18:53:00,62.8,59.5,29.87,North,10,0.0,3.0,89,0.03,,BKN050,0.17,39.00,VWS V14.01,2013-05-09 23:53:00,
2013-05-09 18:58:00,62.7,59.7,29.87,North,10,0.0,2.0,90,0.03,,BKN050,0.17,69.00,VWS V14.01,2013-05-09 23:58:00,
2013-05-09 19:03:00,62.9,60.2,29.87,North,360,0.0,3.0,91,0.03,,BKN050,0.17,44.00,VWS V14.01,2013-05-10 00:03:00,
2013-05-09 19:08:00,62.9,60.2,29.87,NW,314,3.0,6.0,91,0.03,,BKN050,0.17,33.00,VWS V14.01,2013-05-10 00:08:00,
2013-05-09 19:13:00,62.8,60.1,29.87,NW,310,1.0,6.0,91,0.03,,BKN050,0.17,25.00,VWS V14.01,2013-05-10 00:13:00,
2013-05-09 19:18:00,62.8,60.1,29.88,NW,324,4.0,7.0,91,0.03,,BKN050,0.17,25.00,VWS V14.01,2013-05-10 00:18:00,
2013-05-09 19:23:00,62.9,60.2,29.88,WNW,283,0.0,9.0,91,0.03,,BKN050,0.17,32.00,VWS V14.01,2013-05-10 00:23:00,
2013-05-09 19:28:00,62.9,60.2,29.88,WNW,282,5.0,9.0,91,0.03,,BKN050,0.17,30.00,VWS V14.01,2013-05-10 00:28:00,
2013-05-09 19:33:00,62.9,59.9,29.88,NW,319,4.0,13.0,90,0.02,,BKN050,0.17,28.00,VWS V14.01,2013-05-10 00:33:00,
2013-05-09 19:38:00,62.7,59.7,29.88,NNW,333,9.0,12.0,90,0.02,,BKN050,0.17,23.00,VWS V14.01,2013-05-10 00:38:00,
2013-05-09 19:43:00,62.4,59.1,29.88,ENE,57,4.0,16.0,89,0.01,,BKN050,0.17,18.00,VWS V14.01,2013-05-10 00:43:00,
2013-05-09 19:48:00,62.1,58.5,29.88,NNW,341,4.0,8.0,88,0.00,,BKN050,0.17,14.00,VWS V14.01,2013-05-10 00:48:00,
2013-05-09 19:53:00,61.9,58.6,29.88,North,360,3.0,7.0,89,0.00,,SCT028,0.17,11.00,VWS V14.01,2013-05-10 00:53:00,
2013-05-09 19:58:00,61.6,58.3,29.89,NW,314,4.0,6.0,89,0.00,,SCT028,0.17,9.00,VWS V14.01,2013-05-10 00:58:00,
2013-05-09 20:03:00,61.5,58.2,29.89,NNW,346,5.0,11.0,89,0.00,,SCT028,0.17,5.00,VWS V14.01,2013-05-10 01:03:00,
2013-05-09 20:08:00,61.4,58.1,29.89,NW,324,6.0,13.0,89,0.00,,SCT028,0.17,0.00,VWS V14.01,2013-05-10 01:08:00,
2013-05-09 20:13:00,61.3,58.3,29.89,WNW,286,0.0,11.0,90,0.00,,SCT028,0.17,0.00,VWS V14.01,2013-05-10 01:13:00,
2013-05-09 20:18:00,61.1,58.2,29.90,WNW,290,4.0,6.0,90,0.00,,SCT028,0.17,0.00,VWS V14.01,2013-05-10 01:18:00,
2013-05-09 20:23:00,61.0,58.0,29.90,WNW,289,3.0,12.0,90,0.00,,SCT028,0.17,0.00,VWS V14.01,2013-05-10 01:23:00,
2013-05-09 20:28:00,60.9,58.0,29.90,WNW,299,4.0,7.0,90,0.00,,SCT028,0.17,0.00,VWS V14.01,2013-05-10 01:28:00,
2013-05-09 20:33:00,60.9,58.0,29.90,NNW,332,8.0,12.0,90,0.00,,SCT028,0.17,0.00,VWS V14.01,2013-05-10 01:33:00,
2013-05-09 20:38:00,60.8,57.8,29.90,NW,324,5.0,10.0,90,0.00,,SCT028,0.17,0.00,VWS V14.01,2013-05-10 01:38:00,
2013-05-09 20:43:00,60.7,57.8,29.90,North,355,3.0,11.0,90,0.00,,SCT028,0.17,0.00,VWS V14.01,2013-05-10 01:43:00,
2013-05-09 20:48:00,60.6,57.7,29.90,NNW,341,2.0,11.0,90,0.00,,SCT028,0.17,0.00,VWS V14.01,2013-05-10 01:48:00,
2013-05-09 20:53:00,60.4,57.5,29.90,WNW,303,3.0,11.0,90,0.00,,CLR,0.17,0.00,VWS V14.01,2013-05-10 01:53:00,
2013-05-09 20:58:00,60.3,57.4,29.91,NNW,336,6.0,9.0,90,0.00,,CLR,0.17,0.00,VWS V14.01,2013-05-10 01:58:00,
2013-05-09 21:03:00,60.2,57.0,29.91,North,360,6.0,6.0,89,0.00,,CLR,0.17,0.00,VWS V14.01,2013-05-10 02:03:00,
2013-05-09 21:09:00,60.0,56.8,29.90,NNW,347,11.0,11.0,89,0.00,,CLR,0.17,0.00,VWS V14.01,2013-05-10 02:09:00,
2013-05-09 21:14:00,59.9,56.7,29.91,North,5,4.0,12.0,89,0.00,,CLR,0.17,0.00,VWS V14.01,2013-05-10 02:14:00,
2013-05-09 21:19:00,59.6,56.4,29.91,North,351,7.0,9.0,89,0.00,,CLR,0.17,0.00,VWS V14.01,2013-05-10 02:19:00,
2013-05-09 21:24:00,59.5,56.3,29.91,NNE,16,4.0,11.0,89,0.00,,CLR,0.17,0.00,VWS V14.01,2013-05-10 02:24:00,
2013-05-09 21:29:00,59.3,56.1,29.92,NW,316,7.0,12.0,89,0.00,,CLR,0.17,0.00,VWS V14.01,2013-05-10 02:29:00,
2013-05-09 21:34:00,59.1,56.2,29.92,NNW,330,4.0,9.0,90,0.00,,CLR,0.17,0.00,VWS V14.01,2013-05-10 02:34:00,
2013-05-09 21:39:00,59.0,56.1,29.92,NW,318,5.0,6.0,90,0.00,,CLR,0.17,0.00,VWS V14.01,2013-05-10 02:39:00,
2013-05-09 21:44:00,59.0,56.1,29.92,WNW,297,13.0,13.0,90,0.00,,CLR,0.17,0.00,VWS V14.01,2013-05-10 02:44:00,
2013-05-09 21:49:00,59.0,56.1,29.92,NNW,338,1.0,9.0,90,0.00,,CLR,0.17,0.00,VWS V14.01,2013-05-10 02:49:00,
2013-05-09 21:54:00,59.0,56.1,29.92,West,279,6.0,7.0,90,0.00,,BKN013,0.17,0.00,VWS V14.01,2013-05-10 02:54:00,
2013-05-09 21:59:00,59.0,56.1,29.92,WNW,300,9.0,10.0,90,0.00,,BKN013,0.17,0.00,VWS V14.01,2013-05-10 02:59:00,
2013-05-09 22:04:00,59.0,56.1,29.92,NNW,329,3.0,10.0,90,0.00,,BKN013,0.17,0.00,VWS V14.01,2013-05-10 03:04:00,
2013-05-09 22:10:00,59.0,56.1,29.92,NNW,346,4.0,10.0,90,0.00,,BKN013,0.17,0.00,VWS V14.01,2013-05-10 03:10:00,
2013-05-09 22:30:00,59.0,56.1,29.93,North,10,8.0,8.0,90,0.00,,BKN013,0.17,0.00,VWS V14.01,2013-05-10 03:30:00,
2013-05-09 22:35:00,58.5,55.6,29.93,NW,314,10.0,13.0,90,0.00,,BKN013,0.17,0.00,VWS V14.01,2013-05-10 03:35:00,
2013-05-09 22:40:00,58.5,55.6,29.93,NW,314,6.0,10.0,90,0.00,,OVC013,0.17,0.00,VWS V14.01,2013-05-10 03:40:00,
2013-05-09 22:45:00,58.4,55.5,29.93,NW,326,10.0,10.0,90,0.00,,OVC013,0.17,0.00,VWS V14.01,2013-05-10 03:45:00,
2013-05-09 22:50:00,58.4,55.5,29.93,North,352,5.0,13.0,90,0.00,,OVC013,0.17,0.00,VWS V14.01,2013-05-10 03:50:00,
2013-05-09 22:55:00,58.3,55.4,29.93,NNW,330,5.0,11.0,90,0.00,,OVC013,0.17,0.00,VWS V14.01,2013-05-10 03:55:00,
2013-05-09 23:00:00,58.2,55.3,29.93,NNW,330,1.0,13.0,90,0.00,,OVC013,0.17,0.00,VWS V14.01,2013-05-10 04:00:00,
2013-05-09 23:01:00,58.2,55.3,29.93,North,5,4.0,13.0,90,0.00,,OVC013,0.17,0.00,VWS V14.01,2013-05-10 04:01:00,
2013-05-09 23:06:00,58.0,55.1,29.94,NNW,333,2.0,7.0,90,0.00,,OVC013,0.17,0.00,VWS V14.01,2013-05-10 04:06:00,
2013-05-09 23:11:00,57.8,54.9,29.94,North,360,7.0,9.0,90,0.00,,OVC013,0.17,0.00,VWS V14.01,2013-05-10 04:11:00,
2013-05-09 23:16:00,57.6,54.7,29.94,NNW,345,6.0,6.0,90,0.00,,OVC013,0.17,0.00,VWS V14.01,2013-05-10 04:16:00,
2013-05-09 23:21:00,57.5,54.6,29.94,NNE,32,6.0,13.0,90,0.00,,OVC013,0.17,0.00,VWS V14.01,2013-05-10 04:21:00,
2013-05-09 23:26:00,57.4,54.5,29.94,North,355,5.0,14.0,90,0.00,,OVC013,0.17,0.00,VWS V14.01,2013-05-10 04:26:00,
2013-05-09 23:31:00,57.2,54.3,29.94,North,360,3.0,9.0,90,0.00,,OVC013,0.17,0.00,VWS V14.01,2013-05-10 04:31:00,
2013-05-09 23:36:00,57.1,54.2,29.94,NNW,347,7.0,10.0,90,0.00,,OVC013,0.17,0.00,VWS V14.01,2013-05-10 04:36:00,
2013-05-09 23:41:00,57.0,54.1,29.93,NNW,344,11.0,11.0,90,0.00,,OVC013,0.17,0.00,VWS V14.01,2013-05-10 04:41:00,
2013-05-09 23:47:00,57.0,54.1,29.93,NW,326,7.0,13.0,90,0.00,,OVC013,0.17,0.00,VWS V14.01,2013-05-10 04:47:00,
2013-05-09 23:52:00,57.0,54.1,29.93,NNW,344,9.0,15.0,90,0.00,,OVC011,0.17,0.00,VWS V14.01,2013-05-10 04:52:00,
2013-05-09 23:57:00,56.8,54.5,29.93,North,360,5.0,11.0,92,0.00,,OVC011,0.17,0.00,VWS V14.01,2013-05-10 04:57:00,